Date,TemperatureHighF,TemperatureAvgF,TemperatureLowF,DewpointHighF,DewpointAvgF,DewpointLowF,HumidityHigh,HumidityAvg,HumidityLow,PressureMaxIn,PressureMinIn,WindSpeedMaxMPH,WindSpeedAvgMPH,GustSpeedMaxMPH,PrecipitationSumIn
2013-1-1,59.0,51.4,44.0,58.0,47.7,39.0,97,87,74,30.23,29.94,12,6,20,0.41
2013-1-2,44.0,40.7,37.0,39.0,33.2,31.0,85,75,64,30.34,30.22,11,5,19,0.02
2013-1-3,47.0,42.8,39.0,36.0,33.7,32.0,79,70,59,30.44,30.30,9,3,15,0.00
2013-1-4,45.0,43.2,40.0,41.0,38.1,34.0,94,83,66,30.51,30.37,10,3,18,0.03
2013-1-5,49.0,44.2,37.0,45.0,41.6,35.0,95,91,83,30.39,30.24,3,0,6,0.07
2013-1-6,60.0,45.1,33.0,40.0,36.1,32.0,96,74,42,30.38,30.26,10,2,17,0.01
2013-1-7,59.0,47.0,33.0,49.0,39.2,30.0,89,75,54,30.32,30.05,6,1,11,0.00
2013-1-8,58.0,53.3,49.0,57.0,52.0,47.0,97,95,82,30.05,29.84,9,2,16,0.52
2013-1-9,61.0,56.8,52.0,59.0,55.4,51.0,97,95,91,30.02,29.82,13,3,27,1.97
2013-1-10,68.0,56.5,47.0,52.0,47.9,45.0,97,76,48,30.05,29.97,9,2,20,0.02
2013-1-11,73.0,59.2,46.0,68.0,56.0,45.0,95,89,78,30.02,29.81,5,1,13,0.01
2013-1-12,76.0,70.8,53.0,70.0,66.3,44.0,95,86,63,29.83,29.65,13,3,26,0.00
2013-1-13,54.0,47.4,42.0,44.0,35.1,30.0,73,63,48,30.17,29.83,16,9,26,0.00
2013-1-14,49.0,42.4,37.0,37.0,32.0,28.0,73,67,58,30.24,30.09,15,7,23,0.00
2013-1-15,45.0,39.3,37.0,39.0,35.2,30.0,94,86,71,30.24,30.09,12,6,20,0.03
2013-1-16,55.0,42.6,32.0,31.0,23.9,18.0,72,51,24,30.35,30.18,12,4,19,0.01
2013-1-17,66.0,49.1,34.0,38.0,32.9,24.0,76,56,33,30.47,30.29,9,1,17,0.00
2013-1-18,66.0,50.1,36.0,41.0,36.4,32.0,87,63,34,30.52,30.32,1,0,6,0.00
2013-1-19,71.0,53.7,39.0,51.0,44.4,37.0,95,74,42,30.33,30.15,4,0,16,0.00
2013-1-20,72.0,56.5,41.0,56.0,48.0,39.0,93,75,47,30.26,30.09,5,1,10,0.00
2013-1-21,74.0,58.5,44.0,56.0,50.0,42.0,94,75,49,30.24,30.13,3,0,7,0.00
2013-1-22,75.0,59.2,46.0,55.0,49.1,41.0,85,71,47,30.31,30.19,7,1,14,0.00
2013-1-23,76.0,62.7,54.0,62.0,56.9,51.0,97,83,56,30.35,30.19,7,1,13,0.00
2013-1-24,80.0,66.8,58.0,65.0,61.3,57.0,96,84,58,30.26,30.10,10,2,17,0.01
2013-1-25,81.0,69.7,63.0,65.0,62.6,60.0,94,80,56,30.16,30.02,8,3,18,0.01
2013-1-26,79.0,62.9,54.0,64.0,56.5,51.0,94,81,51,30.17,30.02,6,2,13,0.00
2013-1-27,78.0,68.4,60.0,68.0,64.0,59.0,97,86,68,30.10,29.96,7,3,20,0.00
2013-1-28,77.0,72.6,70.0,69.0,67.6,67.0,94,84,74,30.05,29.89,8,4,21,0.00
2013-1-29,86.0,73.9,62.0,69.0,61.6,33.0,89,68,33,29.89,29.51,14,5,31,0.00
2013-1-30,62.0,54.6,43.0,33.0,23.7,16.0,48,31,18,30.23,29.80,16,6,32,0.00
2013-1-31,69.0,57.6,35.0,35.0,25.6,21.0,71,32,16,30.31,30.17,10,2,18,0.00
2013-2-1,73.0,58.0,44.0,47.0,40.0,35.0,74,54,28,30.35,30.18,7,1,15,0.00
2013-2-2,77.0,60.3,44.0,57.0,49.5,41.0,90,70,45,30.28,30.15,7,1,12,0.00
2013-2-3,73.0,61.1,49.0,54.0,46.3,38.0,84,61,33,30.33,30.03,5,1,14,0.00
2013-2-4,77.0,64.4,57.0,63.0,58.0,54.0,94,81,56,30.03,29.79,11,1,17,0.01
2013-2-5,80.0,67.7,59.0,60.0,54.0,46.0,96,67,30,29.97,29.86,4,1,10,0.01
2013-2-6,74.0,65.3,61.0,63.0,60.4,58.0,95,85,63,29.99,29.84,7,1,14,0.30
2013-2-7,78.0,66.1,59.0,65.0,59.8,51.0,93,81,58,30.04,29.86,7,1,14,0.06
2013-2-8,71.0,61.1,51.0,52.0,42.5,36.0,75,53,28,30.22,30.05,11,3,20,0.00
2013-2-9,70.0,61.1,55.0,68.0,58.0,45.0,95,90,62,30.09,29.80,7,2,16,0.02
2013-2-10,71.0,65.2,58.0,68.0,50.6,34.0,95,64,30,30.01,29.75,13,2,22,0.10
2013-2-11,60.0,55.6,53.0,52.0,48.7,44.0,95,78,58,30.05,29.95,11,3,18,0.08
2013-2-12,71.0,59.9,53.0,59.0,51.3,32.0,96,77,29,30.03,29.81,10,2,17,0.04
2013-2-13,64.0,52.6,42.0,48.0,38.1,34.0,80,59,34,30.16,30.00,10,2,18,0.01
2013-2-14,71.0,53.8,37.0,45.0,38.8,34.0,89,61,30,30.14,30.00,3,0,10,0.00
2013-2-15,67.0,52.8,40.0,45.0,38.7,26.0,86,61,34,30.37,30.07,13,4,23,0.00
2013-2-16,66.0,51.3,36.0,33.0,29.0,25.0,67,44,26,30.46,30.22,4,1,11,0.00
2013-2-17,71.0,57.0,41.0,55.0,41.5,32.0,81,58,29,30.22,29.99,8,3,20,0.00
2013-2-18,80.0,69.0,62.0,65.0,55.2,35.0,85,65,28,30.08,29.83,12,3,22,0.00
2013-2-19,70.0,58.9,46.0,38.0,34.3,28.0,66,42,21,30.25,30.07,9,2,17,0.00
2013-2-20,69.0,59.9,52.0,67.0,53.2,36.0,94,79,46,30.10,29.67,9,4,18,0.02
2013-2-21,78.0,70.5,59.0,69.0,48.7,27.0,93,54,17,29.84,29.58,14,3,22,0.01
2013-2-22,60.0,53.6,47.0,42.0,37.6,32.0,76,55,37,30.03,29.84,13,6,22,0.01
2013-2-23,71.0,55.8,43.0,42.0,37.2,31.0,66,51,33,30.05,29.86,8,1,14,0.00
2013-2-24,72.0,58.1,40.0,60.0,49.7,35.0,92,74,58,29.92,29.61,6,2,14,0.00
2013-2-25,67.0,59.4,50.0,60.0,40.2,19.0,95,55,16,29.86,29.56,22,8,44,0.03
2013-2-26,68.0,54.2,40.0,33.0,31.4,29.0,68,44,24,29.96,29.84,9,2,18,0.01
2013-2-27,66.0,54.7,45.0,42.0,33.1,25.0,82,47,27,30.22,29.88,15,4,28,0.00
2013-2-28,62.0,50.9,44.0,32.0,28.2,24.0,58,43,25,30.34,30.18,11,3,20,0.00
2013-3-1,69.0,52.4,33.0,32.0,28.2,26.0,76,44,21,30.29,30.11,8,0,15,0.00
2013-3-2,64.0,51.1,38.0,33.0,29.2,25.0,74,45,25,30.43,30.27,14,3,23,0.00
2013-3-3,76.0,56.5,36.0,48.0,36.1,26.0,74,49,25,30.27,29.96,9,3,20,0.00
2013-3-4,87.0,68.8,56.0,60.0,53.4,48.0,87,63,28,29.96,29.70,11,3,20,0.00
2013-3-5,68.0,59.4,48.0,60.0,32.7,16.0,92,44,14,30.35,29.78,18,7,36,0.00
2013-3-6,67.0,52.2,39.0,27.0,22.5,19.0,49,33,16,30.45,30.21,5,1,14,0.00
2013-3-7,75.0,58.1,42.0,56.0,46.3,30.0,84,66,44,30.24,30.10,6,2,14,0.00
2013-3-8,69.0,63.3,57.0,65.0,59.1,52.0,95,86,77,30.14,29.99,8,2,16,0.06
2013-3-9,75.0,68.4,63.0,67.0,63.9,59.0,93,86,74,30.03,29.66,10,4,25,0.01
2013-3-10,69.0,63.6,54.0,66.0,47.1,36.0,94,59,31,30.11,29.67,15,5,29,0.08
2013-3-11,69.0,55.1,41.0,39.0,29.9,22.0,78,42,19,30.19,30.00,13,4,24,0.03
2013-3-12,81.0,60.0,38.0,44.0,35.8,28.0,77,45,19,30.20,30.06,6,1,16,0.00
2013-3-13,77.0,62.5,48.0,46.0,41.9,37.0,85,52,25,30.43,30.21,6,1,10,0.00
2013-3-14,80.0,63.3,47.0,56.0,49.4,43.0,90,64,34,30.39,30.21,7,1,17,0.00
2013-3-15,82.0,66.3,50.0,58.0,50.5,44.0,93,63,28,30.25,30.00,9,2,18,0.00
2013-3-16,85.0,69.2,56.0,64.0,58.9,54.0,95,73,38,30.01,29.75,9,3,24,0.00
2013-3-17,87.0,73.1,64.0,67.0,63.6,61.0,92,74,43,29.82,29.63,7,1,18,0.00
2013-3-18,93.0,76.4,67.0,67.0,59.7,45.0,92,63,19,29.92,29.70,11,3,20,0.00
2013-3-19,80.0,67.9,53.0,66.0,56.8,47.0,82,68,53,29.98,29.83,6,1,18,0.00
2013-3-20,74.0,64.1,57.0,65.0,50.8,41.0,92,66,32,30.22,29.93,15,5,26,0.14
2013-3-21,77.0,64.8,52.0,63.0,55.1,43.0,90,72,57,30.03,29.63,6,2,18,0.01
2013-3-22,88.0,74.3,66.0,69.0,65.9,55.0,91,77,49,29.74,29.62,8,1,14,0.00
2013-3-23,82.0,64.5,53.0,64.0,55.8,50.0,91,75,51,29.78,29.58,8,2,18,0.00
2013-3-24,68.0,56.5,48.0,63.0,36.8,25.0,92,52,25,30.15,29.67,21,8,34,0.00
2013-3-25,61.0,49.2,38.0,30.0,24.0,15.0,66,41,18,30.37,30.15,11,2,20,0.00
2013-3-26,67.0,52.3,37.0,27.0,23.9,19.0,62,36,16,30.49,30.29,3,0,11,0.00
2013-3-27,69.0,56.6,39.0,52.0,40.2,26.0,73,55,39,30.34,30.16,4,1,13,0.00
2013-3-28,74.0,65.7,58.0,61.0,57.3,52.0,87,75,62,30.21,30.11,6,1,15,0.00
2013-3-29,79.0,68.0,58.0,63.0,58.9,56.0,95,75,48,30.17,30.04,6,1,16,0.00
2013-3-30,86.0,73.2,65.0,66.0,62.1,-99.9,92,73,46,30.11,29.88,7,1,15,0.00
2013-3-31,84.0,71.9,66.0,68.0,65.3,63.0,93,81,54,29.95,29.82,8,1,13,0.00
2013-4-1,89.0,73.4,63.0,68.0,63.6,61.0,94,75,41,30.03,29.88,4,1,14,0.00
2013-4-2,80.0,70.0,65.0,68.0,65.1,63.0,94,85,64,30.00,29.79,11,2,18,0.30
2013-4-3,66.0,56.1,52.0,64.0,53.8,49.0,95,92,88,30.12,29.73,18,6,31,1.27
2013-4-4,63.0,54.3,50.0,50.0,46.5,43.0,90,76,54,30.22,30.09,12,4,21,0.04
2013-4-5,74.0,57.3,42.0,52.0,46.3,40.0,93,70,43,30.27,30.06,3,0,10,0.00
2013-4-6,83.0,66.1,52.0,61.0,56.3,50.0,95,74,45,30.09,29.85,7,1,17,0.00
2013-4-7,85.0,70.9,61.0,66.0,62.8,59.0,95,78,50,29.92,29.76,6,2,17,0.00
2013-4-8,79.0,71.7,68.0,69.0,66.4,64.0,94,84,67,29.83,29.67,7,1,16,0.00
2013-4-9,90.0,76.5,71.0,72.0,69.2,67.0,90,79,55,29.72,29.57,6,2,16,0.00
2013-4-10,75.0,61.2,48.0,71.0,56.4,44.0,93,84,76,29.92,29.63,14,6,28,0.18
2013-4-11,68.0,55.2,46.0,47.0,42.9,39.0,89,65,42,29.98,29.80,11,3,20,0.09
2013-4-12,83.0,64.1,47.0,56.0,47.6,44.0,90,60,27,30.01,29.84,6,0,11,0.02
2013-4-13,81.0,66.7,52.0,61.0,55.2,50.0,94,70,42,29.95,29.75,8,1,14,0.00
2013-4-14,90.0,71.0,57.0,70.0,63.0,55.0,95,78,43,29.83,29.59,7,1,18,0.00
2013-4-15,90.0,77.9,70.0,71.0,68.4,66.0,92,74,51,29.81,29.69,4,1,14,0.00
2013-4-16,87.0,77.0,69.0,72.0,68.9,65.0,94,77,57,29.89,29.79,5,1,13,0.00
2013-4-17,84.0,77.1,73.0,74.0,71.9,70.0,94,84,67,29.87,29.66,6,2,16,0.00
2013-4-18,76.0,65.0,54.0,73.0,58.1,44.0,94,79,55,30.06,29.65,15,5,25,0.24
2013-4-19,70.0,58.4,48.0,44.0,34.6,28.0,71,44,22,30.29,30.06,15,5,28,0.23
2013-4-20,76.0,59.4,41.0,50.0,38.8,32.0,86,52,21,30.24,29.99,4,1,14,0.00
2013-4-21,80.0,65.9,51.0,60.0,54.2,47.0,88,68,44,30.14,29.99,8,1,14,0.00
2013-4-22,87.0,70.0,54.0,64.0,59.5,52.0,95,73,42,30.11,29.85,6,1,15,0.00
2013-4-23,81.0,70.6,54.0,69.0,63.1,47.0,90,78,53,30.07,29.85,10,2,22,0.00
2013-4-24,65.0,55.3,47.0,48.0,42.2,38.0,84,63,46,30.24,30.07,15,7,28,0.00
2013-4-25,70.0,62.7,57.0,49.0,45.9,43.0,66,55,40,30.31,30.17,7,2,13,0.00
2013-4-26,83.0,71.5,61.0,71.0,65.3,48.0,96,82,55,30.19,30.01,5,1,18,0.00
2013-4-27,82.0,71.6,67.0,72.0,68.4,65.0,95,90,68,30.09,29.93,7,1,12,0.04
2013-4-28,85.0,73.0,62.0,67.0,64.9,61.0,96,78,49,30.00,29.85,5,0,11,0.09
2013-4-29,85.0,71.8,66.0,69.0,66.9,64.0,95,85,54,29.93,29.78,8,1,32,0.68
2013-4-30,85.0,73.0,65.0,70.0,66.6,64.0,96,82,54,29.85,29.71,4,0,9,0.28
2013-5-1,88.0,77.2,68.0,71.0,68.4,65.0,95,76,54,29.92,29.78,3,0,10,0.01
2013-5-2,77.0,60.7,50.0,70.0,53.1,39.0,92,76,62,30.32,29.86,17,9,29,0.49
2013-5-3,71.0,57.8,45.0,41.0,33.5,29.0,66,43,21,30.33,30.07,14,7,27,0.01
2013-5-4,83.0,64.4,47.0,47.0,40.1,35.0,79,46,19,30.10,29.86,10,2,17,0.00
2013-5-5,78.0,65.2,52.0,50.0,46.3,41.0,80,52,36,30.14,29.96,10,2,17,0.00
2013-5-6,78.0,65.8,50.0,55.0,50.6,45.0,86,60,40,30.16,29.98,6,0,11,0.00
2013-5-7,88.0,70.8,53.0,62.0,55.1,49.0,89,62,30,30.09,29.92,4,1,11,0.00
2013-5-8,86.0,73.4,63.0,68.0,64.0,60.0,95,75,48,30.02,29.88,6,1,14,0.00
2013-5-9,80.0,74.3,70.0,74.0,69.6,65.0,93,85,76,29.98,29.83,7,1,28,0.00
2013-5-10,83.0,70.5,63.0,71.0,63.2,-99.9,96,83,54,30.01,29.81,9,2,30,0.88
2013-5-11,82.0,72.1,64.0,67.0,60.1,-99.9,93,70,43,30.12,29.96,10,3,18,0.01
2013-5-12,70.0,64.9,59.0,57.0,54.1,52.0,79,68,57,30.23,30.09,2,0,10,0.00
2013-5-13,87.0,79.3,64.0,62.0,58.4,54.0,77,51,33,30.27,30.14,6,1,13,0.00
2013-5-14,88.0,74.3,63.0,70.0,64.5,59.0,92,73,48,30.22,30.01,5,1,17,0.00
2013-5-15,85.0,76.0,70.0,73.0,70.4,68.0,95,83,65,30.09,29.84,5,2,18,0.03
2013-5-16,94.0,74.4,72.0,76.0,50.0,-99.9,88,76,52,29.86,29.72,6,2,17,0.01
2013-5-17,97.0,80.7,75.0,76.0,67.9,-99.9,89,75,48,29.90,29.79,5,1,14,0.00
2013-5-18,96.0,82.2,73.0,74.0,70.7,66.0,92,71,42,29.91,29.82,5,1,22,0.00
2013-5-19,94.0,81.9,74.0,74.0,71.5,69.0,90,73,49,29.86,29.72,6,2,18,0.00
2013-5-20,94.0,82.0,73.0,74.0,71.9,70.0,93,74,49,29.84,29.69,6,1,18,0.00
2013-5-21,92.0,82.2,73.0,75.0,72.7,63.0,91,74,54,29.85,29.67,12,2,21,0.00
2013-5-22,92.0,78.3,65.0,75.0,67.8,61.0,86,71,58,29.91,29.79,7,1,15,0.00
2013-5-23,92.0,81.9,74.0,75.0,73.4,72.0,94,77,56,30.03,29.86,3,0,12,0.00
2013-5-24,82.0,76.1,71.0,76.0,72.5,68.0,95,89,76,30.10,30.00,13,1,24,0.77
2013-5-25,78.0,74.4,72.0,74.0,72.3,70.0,96,93,83,30.15,30.02,4,0,11,0.73
2013-5-26,86.0,77.6,74.0,76.0,72.5,69.0,96,85,69,30.08,29.96,5,0,15,0.11
2013-5-27,91.0,79.6,71.0,74.0,71.6,69.0,96,78,54,30.03,29.84,5,1,16,0.11
2013-5-28,91.0,81.3,75.0,74.0,72.4,71.0,90,76,53,29.91,29.77,6,2,21,0.00
2013-5-29,86.0,79.5,75.0,76.0,73.1,71.0,92,81,66,29.88,29.72,6,2,18,0.01
2013-5-30,92.0,82.4,76.0,76.0,74.2,73.0,93,77,55,29.84,29.75,6,1,15,0.02
2013-5-31,95.0,83.7,77.0,77.0,75.1,74.0,91,77,53,29.88,29.75,5,2,16,0.01
2013-6-1,99.0,85.5,78.0,77.0,74.8,74.0,89,72,46,29.89,29.78,4,1,15,0.00
2013-6-2,89.0,78.4,69.0,75.0,69.5,64.0,93,76,45,30.04,29.88,17,1,27,0.59
2013-6-3,97.0,80.9,66.0,71.0,66.2,62.0,91,65,33,29.98,29.81,4,0,7,0.01
2013-6-4,97.0,82.3,70.0,73.0,69.4,64.0,95,69,36,29.91,29.79,3,0,9,0.00
2013-6-5,97.0,82.9,69.0,73.0,69.9,67.0,94,68,40,29.88,29.72,4,0,11,0.00
2013-6-6,95.0,83.3,72.0,74.0,69.5,62.0,93,66,35,29.91,29.74,10,1,26,0.00
2013-6-7,86.0,77.2,71.0,71.0,66.9,61.0,84,71,44,29.98,29.86,8,1,14,0.00
2013-6-8,94.0,79.6,65.0,74.0,66.5,59.0,83,66,45,29.93,29.78,5,1,14,0.00
2013-6-9,90.0,80.1,71.0,76.0,74.0,69.0,95,83,61,29.95,29.84,5,1,13,0.63
2013-6-10,97.0,82.2,72.0,76.0,72.5,69.0,96,75,41,29.98,29.89,5,0,11,0.03
2013-6-11,95.0,79.6,74.0,75.0,73.5,68.0,95,83,51,30.03,29.96,4,0,10,0.10
2013-6-12,93.0,82.0,75.0,78.0,74.9,72.0,96,81,53,30.05,29.96,5,0,13,0.01
2013-6-13,95.0,79.7,73.0,78.0,74.9,70.0,95,87,52,30.06,29.92,7,0,23,0.12
2013-6-14,92.0,83.2,75.0,79.0,75.7,73.0,96,80,60,29.99,29.88,3,0,11,0.01
2013-6-15,94.0,84.6,77.0,78.0,75.6,73.0,94,76,54,29.99,29.87,4,0,11,0.00
2013-6-16,99.0,85.7,76.0,77.0,73.9,70.0,95,71,41,30.01,29.88,7,1,12,0.00
2013-6-17,100.0,86.6,78.0,76.0,73.9,70.0,92,69,39,30.00,29.83,6,1,14,0.00
2013-6-18,97.0,85.8,77.0,75.0,72.8,69.0,91,68,42,30.00,29.85,6,1,14,0.00
2013-6-19,100.0,87.1,77.0,75.0,72.5,63.0,91,66,31,29.98,29.88,6,1,18,0.00
2013-6-20,98.0,83.3,75.0,76.0,73.1,68.0,94,75,39,30.06,29.95,4,1,15,0.00
2013-6-22,100.0,93.0,84.0,74.0,70.0,67.0,71,49,34,30.04,29.89,6,2,14,0.00
2013-6-23,98.0,85.8,77.0,77.0,70.9,59.0,94,66,30,29.98,29.88,5,1,16,0.00
2013-6-24,99.0,86.1,75.0,77.0,72.6,67.0,95,68,38,30.03,29.90,6,1,22,0.00
2013-6-25,100.0,87.3,77.0,76.0,71.8,66.0,92,64,34,30.00,29.87,6,1,18,0.00
2013-6-26,102.0,88.1,78.0,76.0,72.9,66.0,90,65,34,29.98,29.86,5,1,17,0.00
2013-6-27,104.0,88.5,79.0,76.0,69.9,59.0,86,60,25,30.03,29.88,6,0,14,0.00
2013-6-28,105.0,89.2,77.0,75.0,69.4,63.0,91,58,27,30.01,29.79,7,1,17,0.00
2013-6-29,108.0,93.1,77.0,74.0,67.6,58.0,82,49,21,29.87,29.70,8,2,19,0.00
2013-6-30,93.0,82.5,72.0,74.0,70.0,64.0,92,68,39,29.96,29.78,9,1,17,0.45
2013-7-1,91.0,82.6,73.0,72.0,60.6,55.0,78,49,30,29.98,29.85,11,2,20,0.23
2013-7-2,93.0,81.1,66.0,64.0,57.4,51.0,77,49,24,30.06,29.94,7,1,16,0.00
2013-7-3,98.0,82.9,68.0,66.0,52.3,43.0,63,40,16,30.02,29.87,4,0,13,0.00
2013-7-4,98.0,84.0,71.0,72.0,63.7,57.0,85,55,27,30.00,29.85,5,0,14,0.00
2013-7-5,100.0,85.7,71.0,73.0,66.9,60.0,87,58,28,29.98,29.81,3,0,12,0.00
2013-7-6,100.0,84.4,74.0,75.0,69.7,63.0,89,65,30,29.93,29.80,5,0,13,0.00
2013-7-7,100.0,85.8,76.0,76.0,73.7,69.0,90,69,39,29.97,29.86,5,1,19,0.00
2013-7-8,90.0,80.9,77.0,76.0,74.2,71.0,90,81,57,30.11,29.97,1,0,10,0.00
2013-7-9,100.0,86.2,75.0,77.0,74.2,71.0,96,71,40,30.14,30.00,4,0,14,0.00
2013-7-10,102.0,85.7,75.0,77.0,70.8,-99.9,93,66,34,30.09,29.92,10,1,14,0.00
2013-7-11,100.0,86.9,75.0,76.0,71.1,65.0,94,64,33,30.01,29.86,7,0,13,0.00
2013-7-12,102.0,87.6,75.0,76.0,71.0,65.0,93,63,32,29.96,29.85,5,1,11,0.00
2013-7-13,104.0,89.6,75.0,73.0,67.9,61.0,86,54,25,29.98,29.81,5,0,10,0.00
2013-7-14,100.0,84.0,77.0,75.0,70.1,61.0,83,65,34,29.91,29.84,11,1,23,0.17
2013-7-15,83.0,77.7,75.0,76.0,73.3,70.0,93,87,68,30.01,29.88,7,2,13,0.09
2013-7-16,90.0,80.0,74.0,78.0,73.3,72.0,95,81,55,30.11,29.99,9,1,22,0.10
2013-7-17,84.0,75.6,73.0,76.0,72.9,71.0,96,91,74,30.16,30.09,6,1,13,0.87
2013-7-18,97.0,80.7,73.0,76.0,72.5,68.0,96,79,43,30.15,30.00,9,0,17,0.04
2013-7-19,98.0,83.7,72.0,77.0,71.6,66.0,95,71,36,30.07,29.88,12,0,17,0.01
2013-7-20,98.0,82.6,75.0,76.0,71.6,-99.9,93,73,38,30.00,29.83,8,1,19,0.00
2013-7-21,94.0,82.5,75.0,78.0,75.2,73.0,95,80,53,29.97,29.88,4,0,13,0.00
2013-7-22,98.0,86.0,78.0,78.0,75.4,72.0,95,74,47,29.99,29.89,4,1,16,0.00
2013-7-23,99.0,87.0,79.0,77.0,73.9,67.0,88,68,37,30.02,29.87,7,1,18,0.00
2013-7-24,97.0,85.7,77.0,76.0,74.0,71.0,92,71,44,30.00,29.85,5,1,14,0.00
2013-7-25,100.0,87.2,77.0,76.0,73.2,69.0,92,67,37,30.03,29.94,6,0,13,0.00
2013-7-26,101.0,87.0,77.0,78.0,75.0,70.0,93,71,38,30.03,29.86,5,1,17,0.00
2013-7-27,91.0,83.1,76.0,77.0,74.7,72.0,95,77,55,29.99,29.85,8,1,15,0.06
2013-7-28,100.0,86.7,77.0,78.0,73.1,71.0,87,66,41,29.94,29.83,0,0,11,0.01
2013-7-29,101.0,87.5,78.0,76.0,72.7,66.0,93,65,33,30.04,29.93,3,1,17,0.00
2013-7-30,102.0,87.7,79.0,76.0,72.9,67.0,88,66,33,30.09,29.96,5,1,14,0.00
2013-7-31,103.0,88.2,76.0,75.0,69.2,58.0,92,60,24,30.10,29.91,5,1,14,0.00
2013-8-1,104.0,89.7,77.0,76.0,71.6,68.0,91,60,32,30.03,29.87,4,0,14,0.00
2013-8-2,102.0,88.1,76.0,75.0,71.2,68.0,88,60,34,29.99,29.86,6,1,16,0.00
2013-8-3,102.0,87.9,78.0,76.0,73.6,68.0,92,66,36,30.02,29.90,6,1,15,0.00
2013-8-4,101.0,86.1,77.0,78.0,75.2,72.0,94,73,41,30.06,29.94,4,0,11,0.00
2013-8-5,104.0,95.4,84.0,74.0,70.2,66.0,71,46,31,29.94,29.87,4,2,17,0.00
2013-8-6,105.0,89.2,78.0,76.0,73.0,65.0,89,63,29,29.96,29.80,5,1,17,0.00
2013-8-7,104.0,89.2,79.0,77.0,72.7,64.0,88,63,28,29.93,29.77,5,1,15,0.00
2013-8-8,105.0,89.1,79.0,76.0,71.8,60.0,87,62,24,29.91,29.77,4,1,13,0.00
2013-8-9,103.0,88.5,76.0,76.0,70.5,60.0,93,61,25,29.97,29.83,3,1,12,0.00
2013-8-10,101.0,85.5,77.0,77.0,73.6,71.0,90,70,38,30.04,29.91,6,0,18,0.24
2013-8-11,98.0,84.1,77.0,77.0,74.1,71.0,92,74,43,30.07,29.94,1,0,6,0.30
2013-8-12,99.0,85.1,74.0,75.0,72.3,69.0,94,69,40,30.07,29.92,3,0,12,0.03
2013-8-13,102.0,87.3,78.0,76.0,69.1,-99.9,92,62,31,30.05,29.86,4,1,12,0.03
2013-8-21,94.0,82.9,74.0,76.0,71.9,69.0,91,72,45,30.07,29.96,4,0,15,0.00
2013-8-22,99.0,86.1,75.0,76.0,73.1,70.0,91,68,40,30.07,29.90,9,1,21,0.00
2013-8-23,98.0,86.0,76.0,77.0,72.2,68.0,91,66,39,30.02,29.87,7,0,16,0.00
2013-8-24,100.0,86.4,77.0,75.0,68.9,-99.9,84,60,34,30.03,29.89,8,1,17,0.00
2013-8-25,94.0,85.9,76.0,74.0,71.9,70.0,83,64,46,30.07,29.98,12,3,19,0.00
2013-8-26,84.0,78.3,74.0,76.0,73.6,72.0,96,86,71,30.11,30.02,8,1,21,0.48
2013-8-27,81.0,75.0,74.0,76.0,72.7,72.0,96,93,86,30.12,30.04,2,0,8,0.49
2013-9-3,101.0,88.3,76.0,75.0,70.1,65.0,85,59,32,30.00,29.85,5,0,9,0.00
2013-9-4,101.0,88.1,80.0,75.0,72.1,69.0,81,62,37,30.04,29.91,8,0,19,0.00
2013-9-5,98.0,82.9,74.0,76.0,72.5,70.0,89,73,43,30.09,29.97,4,0,12,0.00
2013-9-6,97.0,85.1,75.0,76.0,73.3,71.0,93,70,43,30.09,29.93,6,0,10,0.00
2013-9-7,96.0,81.8,76.0,76.0,70.2,-99.9,93,73,44,30.03,29.91,4,0,14,0.00
2013-9-8,92.0,80.7,74.0,76.0,72.7,70.0,94,78,55,29.98,29.87,3,0,12,0.00
2013-9-9,95.0,81.2,72.0,75.0,72.2,70.0,94,76,47,29.98,29.91,3,0,12,0.00
2013-9-11,96.0,83.8,75.0,76.0,71.9,66.0,93,71,38,30.08,29.98,6,1,13,0.01
2013-9-12,96.0,81.5,72.0,75.0,71.5,67.0,94,75,40,30.05,29.89,8,1,14,0.36
2013-9-13,98.0,84.5,73.0,73.0,68.7,63.0,93,64,33,29.96,29.80,5,0,12,0.36
2013-9-14,96.0,80.6,73.0,75.0,68.0,-99.9,92,71,44,29.93,29.81,7,1,16,0.27
2013-9-15,93.0,81.0,74.0,75.0,73.2,72.0,94,79,52,29.98,29.90,9,0,15,0.27
2013-9-16,90.0,80.4,75.0,77.0,74.4,72.0,94,83,61,30.03,29.93,8,1,13,0.04
2013-9-17,91.0,79.6,74.0,78.0,74.6,72.0,95,86,58,30.04,29.92,7,0,11,0.28
2013-9-18,78.0,75.9,74.0,75.0,73.4,72.0,95,93,87,30.00,29.94,0,0,0,0.05
2013-9-19,95.0,82.6,76.0,78.0,75.0,73.0,94,80,51,29.95,29.80,3,0,12,0.03
2013-9-20,79.0,76.4,72.0,78.0,74.5,70.0,96,94,88,29.86,29.73,8,1,19,2.01
2013-9-21,84.0,74.3,70.0,71.0,62.6,-99.9,95,71,45,29.90,29.80,14,6,23,0.21
2013-10-2,93.0,82.3,75.0,77.0,74.3,73.0,95,79,53,29.95,29.84,2,0,12,0.00
2013-10-3,92.0,82.4,75.0,76.0,73.9,71.0,95,77,54,29.93,29.82,2,0,10,0.00
2013-10-4,93.0,81.1,71.0,76.0,72.9,69.0,96,78,52,29.92,29.82,5,0,12,0.00
2013-10-5,90.0,77.3,65.0,75.0,67.5,51.0,96,74,50,30.04,29.86,10,2,22,0.01
2013-10-6,81.0,67.0,55.0,56.0,50.0,42.0,92,59,26,30.13,30.02,12,4,19,0.34
2013-10-7,84.0,67.7,54.0,56.0,49.0,44.0,83,56,25,30.16,30.03,0,0,3,0.06
2013-10-8,85.0,70.9,56.0,57.0,52.7,49.0,89,57,30,30.10,29.98,1,0,4,0.00
2013-10-9,86.0,71.3,56.0,64.0,59.6,54.0,93,69,45,30.06,29.94,2,0,6,0.00
2013-10-10,88.0,75.1,64.0,70.0,66.0,62.0,94,76,49,30.03,29.88,2,0,11,0.00
2013-10-18,74.0,66.3,59.0,67.0,61.5,55.0,96,85,74,30.00,29.87,0,0,8,0.21
2013-10-19,67.0,59.3,53.0,64.0,48.1,-99.9,96,71,42,30.19,29.97,12,4,21,0.02
2013-10-20,77.0,60.9,47.0,57.0,49.9,45.0,94,71,40,30.10,29.91,0,0,5,0.00
2013-10-21,80.0,68.9,61.0,72.0,64.4,58.0,94,86,70,30.04,29.89,8,0,16,0.03
2013-10-22,75.0,64.9,56.0,61.0,51.8,44.0,91,66,34,30.15,30.05,9,4,18,0.03
2013-10-23,82.0,65.4,50.0,56.0,50.1,45.0,90,63,29,30.18,30.09,1,0,3,0.00
2013-10-24,83.0,67.6,53.0,59.0,53.8,50.0,91,65,35,30.23,30.12,1,0,5,0.00
2013-10-25,81.0,72.8,55.0,66.0,62.5,53.0,93,71,56,30.30,30.19,3,0,9,0.00
2013-10-26,83.0,69.8,61.0,69.0,61.9,-99.9,94,79,58,30.22,30.06,3,0,11,0.00
2013-10-27,75.0,69.0,66.0,68.0,65.7,64.0,96,89,77,30.11,30.00,5,0,9,0.33
2013-10-28,86.0,72.0,67.0,72.0,66.0,-99.9,96,86,60,30.09,29.97,3,0,11,0.03
2013-10-29,86.0,76.0,69.0,73.0,69.8,67.0,95,83,61,30.08,29.96,3,0,16,0.00
2013-10-30,85.0,77.5,74.0,78.0,74.0,71.0,96,90,76,30.03,29.79,4,1,17,0.30